sensor_id;sensor_type;location;lat;lon;timestamp;temperature;humidity
610;DHT22;292;48.800;9.216;2022-09-09T00:00:58;19.40;62.40
610;DHT22;292;48.800;9.216;2022-09-09T00:03:29;19.40;62.40
610;DHT22;292;48.800;9.216;2022-09-09T00:06:03;19.40;62.30
610;DHT22;292;48.800;9.216;2022-09-09T00:08:40;19.40;62.30
610;DHT22;292;48.800;9.216;2022-09-09T00:11:12;19.40;62.10
610;DHT22;292;48.800;9.216;2022-09-09T00:13:46;19.40;62.10
610;DHT22;292;48.800;9.216;2022-09-09T00:16:17;19.40;62.10
610;DHT22;292;48.800;9.216;2022-09-09T00:18:53;19.40;62.00
610;DHT22;292;48.800;9.216;2022-09-09T00:21:27;19.40;62.00
610;DHT22;292;48.800;9.216;2022-09-09T00:23:55;19.40;62.00
610;DHT22;292;48.800;9.216;2022-09-09T00:26:30;19.40;62.00
610;DHT22;292;48.800;9.216;2022-09-09T00:29:05;19.40;62.00
610;DHT22;292;48.800;9.216;2022-09-09T00:31:36;19.40;62.10
610;DHT22;292;48.800;9.216;2022-09-09T00:34:11;19.30;62.30
610;DHT22;292;48.800;9.216;2022-09-09T00:36:40;19.30;62.40
610;DHT22;292;48.800;9.216;2022-09-09T00:39:13;19.30;62.50
610;DHT22;292;48.800;9.216;2022-09-09T00:41:50;19.30;62.50
610;DHT22;292;48.800;9.216;2022-09-09T00:44:30;19.30;62.80
610;DHT22;292;48.800;9.216;2022-09-09T00:47:09;19.20;62.80
610;DHT22;292;48.800;9.216;2022-09-09T00:49:45;19.20;62.80
610;DHT22;292;48.800;9.216;2022-09-09T00:52:23;19.20;62.80
610;DHT22;292;48.800;9.216;2022-09-09T00:55:03;19.20;63.00
610;DHT22;292;48.800;9.216;2022-09-09T00:57:33;19.20;63.00
610;DHT22;292;48.800;9.216;2022-09-09T01:00:20;19.20;63.10
610;DHT22;292;48.800;9.216;2022-09-09T01:02:55;19.20;63.40
610;DHT22;292;48.800;9.216;2022-09-09T01:05:36;19.10;63.40
610;DHT22;292;48.800;9.216;2022-09-09T01:08:13;19.10;63.60
610;DHT22;292;48.800;9.216;2022-09-09T01:10:48;19.10;63.70
610;DHT22;292;48.800;9.216;2022-09-09T01:13:23;19.00;63.80
610;DHT22;292;48.800;9.216;2022-09-09T01:15:53;19.10;64.10
610;DHT22;292;48.800;9.216;2022-09-09T01:18:23;19.10;64.10
610;DHT22;292;48.800;9.216;2022-09-09T01:20:58;19.10;64.40
610;DHT22;292;48.800;9.216;2022-09-09T01:23:41;19.10;64.70
610;DHT22;292;48.800;9.216;2022-09-09T01:26:34;19.10;65.00
610;DHT22;292;48.800;9.216;2022-09-09T01:29:02;19.10;65.30
610;DHT22;292;48.800;9.216;2022-09-09T01:31:32;19.10;65.30
610;DHT22;292;48.800;9.216;2022-09-09T01:34:01;19.00;65.60
610;DHT22;292;48.800;9.216;2022-09-09T01:36:33;19.00;65.70
610;DHT22;292;48.800;9.216;2022-09-09T01:39:03;19.00;65.70
610;DHT22;292;48.800;9.216;2022-09-09T01:41:31;19.00;65.90
610;DHT22;292;48.800;9.216;2022-09-09T01:43:59;19.00;65.90
610;DHT22;292;48.800;9.216;2022-09-09T01:46:28;19.00;66.00
610;DHT22;292;48.800;9.216;2022-09-09T01:48:56;19.00;66.00
610;DHT22;292;48.800;9.216;2022-09-09T01:51:24;19.10;66.00
610;DHT22;292;48.800;9.216;2022-09-09T01:53:51;19.00;66.00
610;DHT22;292;48.800;9.216;2022-09-09T01:56:38;19.10;66.00
610;DHT22;292;48.800;9.216;2022-09-09T01:59:28;19.10;65.90
610;DHT22;292;48.800;9.216;2022-09-09T02:02:08;19.10;65.90
610;DHT22;292;48.800;9.216;2022-09-09T02:04:38;19.10;65.60
610;DHT22;292;48.800;9.216;2022-09-09T02:07:13;19.10;65.60
610;DHT22;292;48.800;9.216;2022-09-09T02:09:43;19.10;65.40
610;DHT22;292;48.800;9.216;2022-09-09T02:12:16;19.10;65.10
610;DHT22;292;48.800;9.216;2022-09-09T02:14:48;19.10;65.00
610;DHT22;292;48.800;9.216;2022-09-09T02:17:19;19.10;64.90
610;DHT22;292;48.800;9.216;2022-09-09T02:19:52;19.10;64.90
610;DHT22;292;48.800;9.216;2022-09-09T02:22:24;19.10;64.90
610;DHT22;292;48.800;9.216;2022-09-09T02:24:56;19.10;65.00
610;DHT22;292;48.800;9.216;2022-09-09T02:27:26;19.00;65.30
610;DHT22;292;48.800;9.216;2022-09-09T02:29:54;19.00;65.30
610;DHT22;292;48.800;9.216;2022-09-09T02:32:23;19.00;65.40
610;DHT22;292;48.800;9.216;2022-09-09T02:34:54;19.00;65.60
610;DHT22;292;48.800;9.216;2022-09-09T02:37:27;19.00;65.60
610;DHT22;292;48.800;9.216;2022-09-09T02:39:55;19.00;65.60
610;DHT22;292;48.800;9.216;2022-09-09T02:42:22;19.00;65.30
610;DHT22;292;48.800;9.216;2022-09-09T02:44:51;19.00;65.30
610;DHT22;292;48.800;9.216;2022-09-09T02:47:33;19.00;65.30
610;DHT22;292;48.800;9.216;2022-09-09T02:50:10;19.00;65.30
610;DHT22;292;48.800;9.216;2022-09-09T02:52:44;19.00;65.10
610;DHT22;292;48.800;9.216;2022-09-09T02:55:18;19.00;65.00
610;DHT22;292;48.800;9.216;2022-09-09T02:57:49;19.00;64.90
610;DHT22;292;48.800;9.216;2022-09-09T03:00:23;19.00;64.70
610;DHT22;292;48.800;9.216;2022-09-09T03:02:51;19.00;64.70
610;DHT22;292;48.800;9.216;2022-09-09T03:05:18;19.00;64.60
610;DHT22;292;48.800;9.216;2022-09-09T03:07:45;19.00;64.60
610;DHT22;292;48.800;9.216;2022-09-09T03:10:12;19.00;64.60
610;DHT22;292;48.800;9.216;2022-09-09T03:12:39;19.00;64.70
610;DHT22;292;48.800;9.216;2022-09-09T03:15:08;18.90;65.00
610;DHT22;292;48.800;9.216;2022-09-09T03:17:36;18.90;65.30
610;DHT22;292;48.800;9.216;2022-09-09T03:20:04;18.90;65.40
610;DHT22;292;48.800;9.216;2022-09-09T03:22:31;18.80;65.60
610;DHT22;292;48.800;9.216;2022-09-09T03:24:58;18.80;65.60
610;DHT22;292;48.800;9.216;2022-09-09T03:27:25;18.70;65.70
610;DHT22;292;48.800;9.216;2022-09-09T03:29:52;18.70;65.90
610;DHT22;292;48.800;9.216;2022-09-09T03:32:22;18.60;66.20
610;DHT22;292;48.800;9.216;2022-09-09T03:34:52;18.50;66.40
610;DHT22;292;48.800;9.216;2022-09-09T03:37:20;18.40;66.60
610;DHT22;292;48.800;9.216;2022-09-09T03:39:48;18.40;66.70
610;DHT22;292;48.800;9.216;2022-09-09T03:42:15;18.30;66.90
610;DHT22;292;48.800;9.216;2022-09-09T03:44:44;18.30;67.00
610;DHT22;292;48.800;9.216;2022-09-09T03:47:11;18.30;67.30
610;DHT22;292;48.800;9.216;2022-09-09T03:49:38;18.30;67.50
610;DHT22;292;48.800;9.216;2022-09-09T03:52:08;18.30;67.60
610;DHT22;292;48.800;9.216;2022-09-09T03:54:35;18.30;67.70
610;DHT22;292;48.800;9.216;2022-09-09T03:57:03;18.20;67.70
610;DHT22;292;48.800;9.216;2022-09-09T03:59:30;18.30;67.60
610;DHT22;292;48.800;9.216;2022-09-09T04:01:57;18.30;67.60
610;DHT22;292;48.800;9.216;2022-09-09T04:04:24;18.30;67.60
610;DHT22;292;48.800;9.216;2022-09-09T04:06:51;18.30;67.70
610;DHT22;292;48.800;9.216;2022-09-09T04:09:20;18.30;67.70
610;DHT22;292;48.800;9.216;2022-09-09T04:11:47;18.30;67.90
610;DHT22;292;48.800;9.216;2022-09-09T04:14:15;18.30;67.90
610;DHT22;292;48.800;9.216;2022-09-09T04:16:42;18.30;67.90
610;DHT22;292;48.800;9.216;2022-09-09T04:19:10;18.30;67.90
610;DHT22;292;48.800;9.216;2022-09-09T04:21:38;18.30;67.90
610;DHT22;292;48.800;9.216;2022-09-09T04:24:06;18.30;67.90
610;DHT22;292;48.800;9.216;2022-09-09T04:26:36;18.30;68.00
610;DHT22;292;48.800;9.216;2022-09-09T04:29:03;18.20;67.90
610;DHT22;292;48.800;9.216;2022-09-09T04:31:31;18.20;68.00
610;DHT22;292;48.800;9.216;2022-09-09T04:33:58;18.10;68.30
610;DHT22;292;48.800;9.216;2022-09-09T04:36:27;18.00;68.50
610;DHT22;292;48.800;9.216;2022-09-09T04:38:54;18.00;68.60
610;DHT22;292;48.800;9.216;2022-09-09T04:41:21;18.00;68.90
610;DHT22;292;48.800;9.216;2022-09-09T04:43:50;17.90;68.90
610;DHT22;292;48.800;9.216;2022-09-09T04:46:17;17.80;69.00
610;DHT22;292;48.800;9.216;2022-09-09T04:48:44;17.80;69.00
610;DHT22;292;48.800;9.216;2022-09-09T04:51:13;17.80;69.20
610;DHT22;292;48.800;9.216;2022-09-09T04:53:40;17.70;69.30
610;DHT22;292;48.800;9.216;2022-09-09T04:56:09;17.70;69.30
610;DHT22;292;48.800;9.216;2022-09-09T04:58:37;17.70;69.50
610;DHT22;292;48.800;9.216;2022-09-09T05:01:08;17.70;69.50
610;DHT22;292;48.800;9.216;2022-09-09T05:03:35;17.70;69.50
610;DHT22;292;48.800;9.216;2022-09-09T05:06:07;17.80;69.50
610;DHT22;292;48.800;9.216;2022-09-09T05:08:36;17.80;69.60
610;DHT22;292;48.800;9.216;2022-09-09T05:11:03;17.80;69.50
610;DHT22;292;48.800;9.216;2022-09-09T05:13:30;17.80;69.60
610;DHT22;292;48.800;9.216;2022-09-09T05:15:58;17.80;69.60
610;DHT22;292;48.800;9.216;2022-09-09T05:18:26;17.80;69.60
610;DHT22;292;48.800;9.216;2022-09-09T05:20:58;17.90;69.60
610;DHT22;292;48.800;9.216;2022-09-09T05:23:26;17.90;69.60
610;DHT22;292;48.800;9.216;2022-09-09T05:25:57;17.90;69.60
610;DHT22;292;48.800;9.216;2022-09-09T05:28:24;17.90;69.60
610;DHT22;292;48.800;9.216;2022-09-09T05:30:56;18.00;69.50
610;DHT22;292;48.800;9.216;2022-09-09T05:33:25;18.00;69.50
610;DHT22;292;48.800;9.216;2022-09-09T05:35:57;18.00;69.50
610;DHT22;292;48.800;9.216;2022-09-09T05:38:24;18.10;69.50
610;DHT22;292;48.800;9.216;2022-09-09T05:40:51;18.10;69.30
610;DHT22;292;48.800;9.216;2022-09-09T05:43:18;18.10;69.20
610;DHT22;292;48.800;9.216;2022-09-09T05:45:46;18.20;69.00
610;DHT22;292;48.800;9.216;2022-09-09T05:48:13;18.30;69.00
610;DHT22;292;48.800;9.216;2022-09-09T05:50:43;18.30;69.00
610;DHT22;292;48.800;9.216;2022-09-09T05:53:19;18.40;68.60
610;DHT22;292;48.800;9.216;2022-09-09T05:55:46;18.40;68.50
610;DHT22;292;48.800;9.216;2022-09-09T05:58:14;18.40;68.30
610;DHT22;292;48.800;9.216;2022-09-09T06:00:42;18.40;68.30
610;DHT22;292;48.800;9.216;2022-09-09T06:03:10;18.40;68.30
610;DHT22;292;48.800;9.216;2022-09-09T06:05:38;18.50;68.20
610;DHT22;292;48.800;9.216;2022-09-09T06:08:06;18.50;68.20
610;DHT22;292;48.800;9.216;2022-09-09T06:10:34;18.50;68.20
610;DHT22;292;48.800;9.216;2022-09-09T06:13:01;18.50;68.20
610;DHT22;292;48.800;9.216;2022-09-09T06:15:29;18.50;68.00
610;DHT22;292;48.800;9.216;2022-09-09T06:17:57;18.60;68.00
610;DHT22;292;48.800;9.216;2022-09-09T06:20:24;18.60;68.00
610;DHT22;292;48.800;9.216;2022-09-09T06:22:51;18.60;68.00
610;DHT22;292;48.800;9.216;2022-09-09T06:25:19;18.70;67.90
610;DHT22;292;48.800;9.216;2022-09-09T06:27:48;18.70;67.90
610;DHT22;292;48.800;9.216;2022-09-09T06:30:16;18.70;67.90
610;DHT22;292;48.800;9.216;2022-09-09T06:32:44;18.70;67.70
610;DHT22;292;48.800;9.216;2022-09-09T06:35:10;18.70;67.70
610;DHT22;292;48.800;9.216;2022-09-09T06:37:39;18.80;67.70
610;DHT22;292;48.800;9.216;2022-09-09T06:40:07;18.80;67.50
610;DHT22;292;48.800;9.216;2022-09-09T06:42:35;18.90;67.50
610;DHT22;292;48.800;9.216;2022-09-09T06:45:02;18.90;67.30
610;DHT22;292;48.800;9.216;2022-09-09T06:47:30;18.90;67.20
610;DHT22;292;48.800;9.216;2022-09-09T06:49:57;19.00;67.00
610;DHT22;292;48.800;9.216;2022-09-09T06:52:24;19.00;66.90
610;DHT22;292;48.800;9.216;2022-09-09T06:54:51;19.10;66.90
610;DHT22;292;48.800;9.216;2022-09-09T06:57:18;19.10;66.70
610;DHT22;292;48.800;9.216;2022-09-09T06:59:47;19.10;66.60
610;DHT22;292;48.800;9.216;2022-09-09T07:02:14;19.20;66.60
610;DHT22;292;48.800;9.216;2022-09-09T07:04:41;19.20;66.40
610;DHT22;292;48.800;9.216;2022-09-09T07:07:08;19.20;66.40
610;DHT22;292;48.800;9.216;2022-09-09T07:09:37;19.30;66.30
610;DHT22;292;48.800;9.216;2022-09-09T07:12:05;19.30;66.20
610;DHT22;292;48.800;9.216;2022-09-09T07:14:32;19.30;66.20
610;DHT22;292;48.800;9.216;2022-09-09T07:17:03;19.40;66.20
610;DHT22;292;48.800;9.216;2022-09-09T07:19:30;19.40;66.00
610;DHT22;292;48.800;9.216;2022-09-09T07:21:57;19.40;66.00
610;DHT22;292;48.800;9.216;2022-09-09T07:24:24;19.40;65.90
610;DHT22;292;48.800;9.216;2022-09-09T07:26:55;19.50;66.00
610;DHT22;292;48.800;9.216;2022-09-09T07:29:22;19.50;66.00
610;DHT22;292;48.800;9.216;2022-09-09T07:31:49;19.50;66.00
610;DHT22;292;48.800;9.216;2022-09-09T07:34:18;19.60;66.00
610;DHT22;292;48.800;9.216;2022-09-09T07:36:45;19.60;65.70
610;DHT22;292;48.800;9.216;2022-09-09T07:39:14;19.60;65.70
610;DHT22;292;48.800;9.216;2022-09-09T07:41:44;19.70;65.60
610;DHT22;292;48.800;9.216;2022-09-09T07:44:14;19.70;65.60
610;DHT22;292;48.800;9.216;2022-09-09T07:46:42;19.80;65.40
610;DHT22;292;48.800;9.216;2022-09-09T07:49:11;19.90;65.40
610;DHT22;292;48.800;9.216;2022-09-09T07:51:41;19.90;65.30
610;DHT22;292;48.800;9.216;2022-09-09T07:54:10;20.00;65.00
610;DHT22;292;48.800;9.216;2022-09-09T07:56:38;20.10;65.00
610;DHT22;292;48.800;9.216;2022-09-09T07:59:06;20.10;64.90
610;DHT22;292;48.800;9.216;2022-09-09T08:01:34;20.20;64.60
610;DHT22;292;48.800;9.216;2022-09-09T08:04:05;20.20;64.30
610;DHT22;292;48.800;9.216;2022-09-09T08:06:39;20.30;64.30
610;DHT22;292;48.800;9.216;2022-09-09T08:09:09;20.40;64.40
610;DHT22;292;48.800;9.216;2022-09-09T08:11:37;20.50;64.10
610;DHT22;292;48.800;9.216;2022-09-09T08:14:05;20.50;64.00
610;DHT22;292;48.800;9.216;2022-09-09T08:16:34;20.60;64.00
610;DHT22;292;48.800;9.216;2022-09-09T08:19:02;20.70;63.70
610;DHT22;292;48.800;9.216;2022-09-09T08:21:31;20.80;63.70
610;DHT22;292;48.800;9.216;2022-09-09T08:24:00;20.90;63.30
610;DHT22;292;48.800;9.216;2022-09-09T08:26:30;21.00;63.00
610;DHT22;292;48.800;9.216;2022-09-09T08:28:59;21.10;62.80
610;DHT22;292;48.800;9.216;2022-09-09T08:31:29;21.20;62.70
610;DHT22;292;48.800;9.216;2022-09-09T08:33:57;21.30;62.50
610;DHT22;292;48.800;9.216;2022-09-09T08:36:27;21.30;62.30
610;DHT22;292;48.800;9.216;2022-09-09T08:38:56;21.40;62.00
610;DHT22;292;48.800;9.216;2022-09-09T08:44:23;21.50;60.80
610;DHT22;292;48.800;9.216;2022-09-09T08:47:00;21.60;60.00
610;DHT22;292;48.800;9.216;2022-09-09T08:49:55;21.70;59.60
610;DHT22;292;48.800;9.216;2022-09-09T08:52:28;21.80;59.20
610;DHT22;292;48.800;9.216;2022-09-09T08:54:58;21.90;58.60
610;DHT22;292;48.800;9.216;2022-09-09T08:57:31;22.00;58.20
610;DHT22;292;48.800;9.216;2022-09-09T08:59:59;22.10;57.80
610;DHT22;292;48.800;9.216;2022-09-09T09:02:31;22.20;57.20
610;DHT22;292;48.800;9.216;2022-09-09T09:05:11;22.20;57.00
610;DHT22;292;48.800;9.216;2022-09-09T09:07:52;22.30;56.60
610;DHT22;292;48.800;9.216;2022-09-09T09:10:29;22.30;56.20
610;DHT22;292;48.800;9.216;2022-09-09T09:13:15;22.50;55.20
610;DHT22;292;48.800;9.216;2022-09-09T09:15:44;22.50;54.50
610;DHT22;292;48.800;9.216;2022-09-09T09:18:20;22.60;54.20
610;DHT22;292;48.800;9.216;2022-09-09T09:20:52;22.60;53.60
610;DHT22;292;48.800;9.216;2022-09-09T09:23:23;22.70;53.30
610;DHT22;292;48.800;9.216;2022-09-09T09:25:53;22.70;52.90
610;DHT22;292;48.800;9.216;2022-09-09T09:28:26;22.80;52.40
610;DHT22;292;48.800;9.216;2022-09-09T09:30:56;22.80;51.40
610;DHT22;292;48.800;9.216;2022-09-09T09:33:27;22.80;50.40
610;DHT22;292;48.800;9.216;2022-09-09T09:35:55;22.80;51.00
610;DHT22;292;48.800;9.216;2022-09-09T09:38:24;22.70;51.80
610;DHT22;292;48.800;9.216;2022-09-09T09:40:53;22.60;52.50
610;DHT22;292;48.800;9.216;2022-09-09T09:43:27;22.50;52.60
610;DHT22;292;48.800;9.216;2022-09-09T09:45:55;22.40;52.60
610;DHT22;292;48.800;9.216;2022-09-09T09:48:24;22.20;52.40
610;DHT22;292;48.800;9.216;2022-09-09T09:50:52;22.10;52.60
610;DHT22;292;48.800;9.216;2022-09-09T09:53:24;21.90;52.60
610;DHT22;292;48.800;9.216;2022-09-09T09:55:55;21.90;52.80
610;DHT22;292;48.800;9.216;2022-09-09T09:58:24;21.80;52.80
610;DHT22;292;48.800;9.216;2022-09-09T10:00:53;21.80;52.80
610;DHT22;292;48.800;9.216;2022-09-09T10:03:25;21.90;52.80
610;DHT22;292;48.800;9.216;2022-09-09T10:05:54;21.90;52.90
610;DHT22;292;48.800;9.216;2022-09-09T10:08:22;22.00;52.80
610;DHT22;292;48.800;9.216;2022-09-09T10:11:02;22.10;52.40
610;DHT22;292;48.800;9.216;2022-09-09T10:13:40;22.20;52.20
610;DHT22;292;48.800;9.216;2022-09-09T10:16:22;22.40;51.60
610;DHT22;292;48.800;9.216;2022-09-09T10:19:00;22.50;51.00
610;DHT22;292;48.800;9.216;2022-09-09T10:21:55;22.60;51.20
610;DHT22;292;48.800;9.216;2022-09-09T10:27:21;22.70;51.70
610;DHT22;292;48.800;9.216;2022-09-09T10:30:06;22.80;52.10
610;DHT22;292;48.800;9.216;2022-09-09T10:32:42;22.80;52.40
610;DHT22;292;48.800;9.216;2022-09-09T10:35:19;22.90;52.20
610;DHT22;292;48.800;9.216;2022-09-09T10:38:10;23.00;52.40
610;DHT22;292;48.800;9.216;2022-09-09T10:40:43;23.10;52.80
610;DHT22;292;48.800;9.216;2022-09-09T10:43:19;23.10;52.50
610;DHT22;292;48.800;9.216;2022-09-09T10:46:00;23.10;52.50
610;DHT22;292;48.800;9.216;2022-09-09T10:48:40;23.20;52.50
610;DHT22;292;48.800;9.216;2022-09-09T10:51:23;23.20;52.50
610;DHT22;292;48.800;9.216;2022-09-09T10:54:11;23.30;52.50
610;DHT22;292;48.800;9.216;2022-09-09T10:56:41;23.40;52.40
610;DHT22;292;48.800;9.216;2022-09-09T10:59:13;23.40;52.40
610;DHT22;292;48.800;9.216;2022-09-09T11:01:44;23.50;52.40
610;DHT22;292;48.800;9.216;2022-09-09T11:04:19;23.50;52.40
610;DHT22;292;48.800;9.216;2022-09-09T11:06:52;23.50;52.40
610;DHT22;292;48.800;9.216;2022-09-09T11:09:23;23.60;52.40
610;DHT22;292;48.800;9.216;2022-09-09T11:11:53;23.60;52.40
610;DHT22;292;48.800;9.216;2022-09-09T11:14:26;23.70;52.20
610;DHT22;292;48.800;9.216;2022-09-09T11:17:00;23.70;52.20
610;DHT22;292;48.800;9.216;2022-09-09T11:19:32;23.80;51.80
610;DHT22;292;48.800;9.216;2022-09-09T11:22:02;23.90;50.20
610;DHT22;292;48.800;9.216;2022-09-09T11:24:35;23.80;47.30
610;DHT22;292;48.800;9.216;2022-09-09T11:27:07;23.70;46.90
610;DHT22;292;48.800;9.216;2022-09-09T11:29:53;23.50;47.30
610;DHT22;292;48.800;9.216;2022-09-09T11:36:03;23.10;47.30
610;DHT22;292;48.800;9.216;2022-09-09T11:38:40;22.90;47.20
610;DHT22;292;48.800;9.216;2022-09-09T11:41:10;22.80;47.20
610;DHT22;292;48.800;9.216;2022-09-09T11:43:41;22.60;47.60
610;DHT22;292;48.800;9.216;2022-09-09T11:46:10;22.50;48.00
610;DHT22;292;48.800;9.216;2022-09-09T11:48:38;22.40;48.50
610;DHT22;292;48.800;9.216;2022-09-09T11:51:11;22.30;48.60
610;DHT22;292;48.800;9.216;2022-09-09T11:53:50;22.20;49.20
610;DHT22;292;48.800;9.216;2022-09-09T11:56:28;22.10;49.60
610;DHT22;292;48.800;9.216;2022-09-09T11:58:59;22.10;50.00
610;DHT22;292;48.800;9.216;2022-09-09T12:01:45;22.00;50.20
610;DHT22;292;48.800;9.216;2022-09-09T12:07:23;21.90;50.60
610;DHT22;292;48.800;9.216;2022-09-09T12:09:56;21.90;50.60
610;DHT22;292;48.800;9.216;2022-09-09T12:12:31;22.00;50.50
610;DHT22;292;48.800;9.216;2022-09-09T12:15:02;22.10;49.60
610;DHT22;292;48.800;9.216;2022-09-09T12:17:44;22.20;48.60
610;DHT22;292;48.800;9.216;2022-09-09T12:20:13;22.30;48.50
610;DHT22;292;48.800;9.216;2022-09-09T12:22:51;22.40;48.40
610;DHT22;292;48.800;9.216;2022-09-09T12:25:29;22.50;48.10
610;DHT22;292;48.800;9.216;2022-09-09T12:28:08;22.50;47.80
610;DHT22;292;48.800;9.216;2022-09-09T12:30:44;22.50;47.80
610;DHT22;292;48.800;9.216;2022-09-09T12:33:17;22.60;47.80
610;DHT22;292;48.800;9.216;2022-09-09T12:35:48;22.70;47.70
610;DHT22;292;48.800;9.216;2022-09-09T12:38:26;22.80;47.60
610;DHT22;292;48.800;9.216;2022-09-09T12:40:55;23.00;46.60
610;DHT22;292;48.800;9.216;2022-09-09T12:43:25;23.20;46.20
610;DHT22;292;48.800;9.216;2022-09-09T12:45:55;23.40;45.80
610;DHT22;292;48.800;9.216;2022-09-09T12:48:32;23.60;44.80
610;DHT22;292;48.800;9.216;2022-09-09T12:51:00;23.70;44.10
610;DHT22;292;48.800;9.216;2022-09-09T12:53:33;23.80;43.00
610;DHT22;292;48.800;9.216;2022-09-09T12:56:03;23.90;42.40
610;DHT22;292;48.800;9.216;2022-09-09T12:58:36;23.90;42.50
610;DHT22;292;48.800;9.216;2022-09-09T13:01:05;24.00;42.60
610;DHT22;292;48.800;9.216;2022-09-09T13:03:32;24.00;42.90
610;DHT22;292;48.800;9.216;2022-09-09T13:06:12;24.10;43.20
610;DHT22;292;48.800;9.216;2022-09-09T13:08:41;24.10;43.40
610;DHT22;292;48.800;9.216;2022-09-09T13:11:12;24.10;43.60
610;DHT22;292;48.800;9.216;2022-09-09T13:13:42;24.10;43.60
610;DHT22;292;48.800;9.216;2022-09-09T13:16:20;24.20;43.60
610;DHT22;292;48.800;9.216;2022-09-09T13:18:49;24.20;43.40
610;DHT22;292;48.800;9.216;2022-09-09T13:21:18;24.30;42.90
610;DHT22;292;48.800;9.216;2022-09-09T13:23:50;24.30;43.00
610;DHT22;292;48.800;9.216;2022-09-09T13:26:22;24.30;43.30
610;DHT22;292;48.800;9.216;2022-09-09T13:28:51;24.40;43.20
610;DHT22;292;48.800;9.216;2022-09-09T13:31:21;24.40;43.20
610;DHT22;292;48.800;9.216;2022-09-09T13:33:49;24.40;43.20
610;DHT22;292;48.800;9.216;2022-09-09T13:36:16;24.60;43.00
610;DHT22;292;48.800;9.216;2022-09-09T13:38:56;24.60;42.90
610;DHT22;292;48.800;9.216;2022-09-09T13:41:29;24.70;42.60
610;DHT22;292;48.800;9.216;2022-09-09T13:43:57;24.70;42.40
610;DHT22;292;48.800;9.216;2022-09-09T13:46:27;24.80;42.50
610;DHT22;292;48.800;9.216;2022-09-09T13:48:56;24.90;42.50
610;DHT22;292;48.800;9.216;2022-09-09T13:51:32;25.00;42.10
610;DHT22;292;48.800;9.216;2022-09-09T13:54:01;25.00;41.70
610;DHT22;292;48.800;9.216;2022-09-09T13:56:28;25.00;41.40
610;DHT22;292;48.800;9.216;2022-09-09T13:58:55;25.00;41.20
610;DHT22;292;48.800;9.216;2022-09-09T14:01:24;24.90;40.60
610;DHT22;292;48.800;9.216;2022-09-09T14:03:51;24.80;40.40
610;DHT22;292;48.800;9.216;2022-09-09T14:06:18;24.80;40.10
610;DHT22;292;48.800;9.216;2022-09-09T14:08:47;24.70;40.10
610;DHT22;292;48.800;9.216;2022-09-09T14:11:16;24.70;40.20
610;DHT22;292;48.800;9.216;2022-09-09T14:13:43;24.70;39.80
610;DHT22;292;48.800;9.216;2022-09-09T14:16:10;24.70;40.00
610;DHT22;292;48.800;9.216;2022-09-09T14:18:37;24.70;39.80
610;DHT22;292;48.800;9.216;2022-09-09T14:21:04;24.60;40.00
610;DHT22;292;48.800;9.216;2022-09-09T14:23:31;24.70;40.20
610;DHT22;292;48.800;9.216;2022-09-09T14:25:59;24.70;40.00
610;DHT22;292;48.800;9.216;2022-09-09T14:28:27;24.80;40.00
610;DHT22;292;48.800;9.216;2022-09-09T14:30:55;25.00;39.20
610;DHT22;292;48.800;9.216;2022-09-09T14:33:22;25.10;39.00
610;DHT22;292;48.800;9.216;2022-09-09T14:35:55;25.20;38.40
610;DHT22;292;48.800;9.216;2022-09-09T14:38:22;25.30;37.60
610;DHT22;292;48.800;9.216;2022-09-09T14:40:49;25.30;37.60
610;DHT22;292;48.800;9.216;2022-09-09T14:43:16;25.30;38.00
610;DHT22;292;48.800;9.216;2022-09-09T14:45:45;25.30;38.20
610;DHT22;292;48.800;9.216;2022-09-09T14:48:13;25.30;38.20
610;DHT22;292;48.800;9.216;2022-09-09T14:50:41;25.30;38.00
610;DHT22;292;48.800;9.216;2022-09-09T14:53:08;25.30;37.80
610;DHT22;292;48.800;9.216;2022-09-09T14:55:36;25.30;37.70
610;DHT22;292;48.800;9.216;2022-09-09T14:58:03;25.30;37.80
610;DHT22;292;48.800;9.216;2022-09-09T15:00:31;25.30;38.10
610;DHT22;292;48.800;9.216;2022-09-09T15:02:59;25.30;37.70
610;DHT22;292;48.800;9.216;2022-09-09T15:05:27;25.30;37.40
610;DHT22;292;48.800;9.216;2022-09-09T15:07:54;25.40;37.30
610;DHT22;292;48.800;9.216;2022-09-09T15:10:24;25.40;36.90
610;DHT22;292;48.800;9.216;2022-09-09T15:12:52;25.40;36.90
610;DHT22;292;48.800;9.216;2022-09-09T15:15:19;25.40;37.00
610;DHT22;292;48.800;9.216;2022-09-09T15:17:46;25.50;37.20
610;DHT22;292;48.800;9.216;2022-09-09T15:20:15;25.60;36.40
610;DHT22;292;48.800;9.216;2022-09-09T15:22:42;25.60;36.10
610;DHT22;292;48.800;9.216;2022-09-09T15:25:09;25.60;36.00
610;DHT22;292;48.800;9.216;2022-09-09T15:27:38;25.50;36.20
610;DHT22;292;48.800;9.216;2022-09-09T15:30:07;25.40;36.60
610;DHT22;292;48.800;9.216;2022-09-09T15:32:34;25.30;36.80
610;DHT22;292;48.800;9.216;2022-09-09T15:35:01;25.20;37.00
610;DHT22;292;48.800;9.216;2022-09-09T15:37:30;25.10;37.20
610;DHT22;292;48.800;9.216;2022-09-09T15:39:56;25.10;37.20
610;DHT22;292;48.800;9.216;2022-09-09T15:42:26;25.00;37.30
610;DHT22;292;48.800;9.216;2022-09-09T15:44:57;25.00;37.40
610;DHT22;292;48.800;9.216;2022-09-09T15:47:24;24.90;37.70
610;DHT22;292;48.800;9.216;2022-09-09T15:50:06;24.90;38.00
610;DHT22;292;48.800;9.216;2022-09-09T15:52:44;24.80;38.10
610;DHT22;292;48.800;9.216;2022-09-09T15:55:13;24.70;38.20
610;DHT22;292;48.800;9.216;2022-09-09T15:57:43;24.70;38.50
610;DHT22;292;48.800;9.216;2022-09-09T16:00:12;24.60;38.80
610;DHT22;292;48.800;9.216;2022-09-09T16:02:52;24.60;38.90
610;DHT22;292;48.800;9.216;2022-09-09T16:05:23;24.50;39.20
610;DHT22;292;48.800;9.216;2022-09-09T16:07:52;24.40;39.40
610;DHT22;292;48.800;9.216;2022-09-09T16:10:19;24.40;39.40
610;DHT22;292;48.800;9.216;2022-09-09T16:12:48;24.40;39.60
610;DHT22;292;48.800;9.216;2022-09-09T16:15:17;24.30;39.40
610;DHT22;292;48.800;9.216;2022-09-09T16:17:47;24.20;39.20
610;DHT22;292;48.800;9.216;2022-09-09T16:20:14;24.20;39.40
610;DHT22;292;48.800;9.216;2022-09-09T16:22:42;24.20;39.60
610;DHT22;292;48.800;9.216;2022-09-09T16:25:10;24.10;39.60
610;DHT22;292;48.800;9.216;2022-09-09T16:27:37;24.10;39.70
610;DHT22;292;48.800;9.216;2022-09-09T16:30:05;24.00;39.80
610;DHT22;292;48.800;9.216;2022-09-09T16:32:32;24.00;40.10
610;DHT22;292;48.800;9.216;2022-09-09T16:35:00;24.00;40.20
610;DHT22;292;48.800;9.216;2022-09-09T16:37:28;23.90;40.50
610;DHT22;292;48.800;9.216;2022-09-09T16:39:55;23.90;41.00
610;DHT22;292;48.800;9.216;2022-09-09T16:42:24;23.70;41.60
610;DHT22;292;48.800;9.216;2022-09-09T16:44:51;23.50;42.40
610;DHT22;292;48.800;9.216;2022-09-09T16:47:18;23.20;43.00
610;DHT22;292;48.800;9.216;2022-09-09T16:49:45;22.90;43.70
610;DHT22;292;48.800;9.216;2022-09-09T16:52:12;22.70;44.20
610;DHT22;292;48.800;9.216;2022-09-09T16:54:39;22.60;44.60
610;DHT22;292;48.800;9.216;2022-09-09T16:57:06;22.40;44.80
610;DHT22;292;48.800;9.216;2022-09-09T16:59:37;22.30;44.50
610;DHT22;292;48.800;9.216;2022-09-09T17:02:04;22.20;44.40
610;DHT22;292;48.800;9.216;2022-09-09T17:04:32;22.10;44.60
610;DHT22;292;48.800;9.216;2022-09-09T17:07:00;22.10;44.80
610;DHT22;292;48.800;9.216;2022-09-09T17:09:28;22.00;45.20